Arctic Bay, Canada
Current Conditions -  °F | °C
As of 1:00 AM on Saturday 20 Dec 2014 (Local Time) from CYIO Reporting Station
Clear Clear  
Wind Chill: -41°   Ceiling: Unl
Heat Index: -30°   Visibility: 9mi
Dew Point: -34°   Wind: 9mph
Humidity: 69%   Direction: 180°S
Pressure: 30.05"   Gusts: NA
Location:  73.03°N, 85.17°W
Report Text: CYIO 200700Z AUTO 18008KT 9SM CLR M30/M34 A3005 RMK SLP188
Loading
Personal Weather Stations






























Interactive Weather Map New forecast layout! Learn more

10-Day Weather Forecast

Advertisements
Track Severe Weather on mobile